Time;durP1;ratioP1;P1;durP2;ratioP2;P2;SDS_P1;SDS_P2;PMS_P1;PMS_P2;Temp;Humidity;BMP_temperature;BMP_pressure;BME280_temperature;BME280_humidity;BME280_pressure;Samples;Min_cycle;Max_cycle;Signal;HPM_P1;HPM_P2
2022/11/02 00:02:24;;;;;;;;;42.50;33.25;;;;;15.28;62.29;101672.44;146633;627;45016;-73
2022/11/02 00:05:26;;;;;;;;;42.50;32.75;;;;;15.21;63.35;101669.53;146616;616;46020;-80
2022/11/02 00:08:21;;;;;;;;;43.00;35.75;;;;;15.19;63.11;101659.84;146612;588;46017;-79
2022/11/02 00:11:27;;;;;;;;;39.50;33.75;;;;;15.17;62.64;101662.41;146615;691;46020;-78
2022/11/02 00:14:20;;;;;;;;;39.50;33.00;;;;;15.17;63.23;101664.09;146613;602;46016;-77
2022/11/02 00:17:22;;;;;;;;;40.25;32.75;;;;;13.83;62.45;101438.41;146614;583;46021;-78
2022/11/02 00:20:38;;;;;;;;;;;;;;;;;;;;;
2022/11/02 00:24:04;;;;;;;;;35.50;32.50;;;;;13.81;61.40;101416.56;146613;586;46011;-72
2022/11/02 00:27:10;;;;;;;;;44.25;36.25;;;;;15.22;62.68;101658.25;146610;586;46012;-75
2022/11/02 00:30:09;;;;;;;;;36.75;33.50;;;;;15.25;62.34;101653.19;146611;616;47010;-76
2022/11/02 00:33:10;;;;;;;;;42.00;34.75;;;;;15.31;62.64;101657.81;146613;654;46016;-71
2022/11/02 00:36:08;;;;;;;;;39.25;31.50;;;;;15.31;61.54;101655.19;146614;634;46010;-83
2022/11/02 00:39:12;;;;;;;;;39.25;32.00;;;;;15.29;61.88;101650.72;146611;625;46016;-77
2022/11/02 00:42:15;;;;;;;;;45.25;36.25;;;;;15.29;61.66;101658.56;146614;691;46020;-77
2022/11/02 00:45:09;;;;;;;;;42.50;35.00;;;;;15.26;61.86;101651.44;146611;573;46917;-76
2022/11/02 00:48:13;;;;;;;;;40.00;33.50;;;;;15.28;61.83;101651.53;146615;624;46020;-76
2022/11/02 00:51:18;;;;;;;;;44.00;36.25;;;;;15.31;62.46;101654.31;146612;570;46017;-76
2022/11/02 00:54:13;;;;;;;;;46.00;38.75;;;;;15.32;62.38;101653.47;146615;570;46021;-78
2022/11/02 00:57:08;;;;;;;;;44.50;37.00;;;;;15.35;61.63;101656.22;146613;601;46016;-76
2022/11/02 01:00:04;;;;;;;;;46.25;37.75;;;;;15.37;62.81;101646.75;146612;644;46021;-75
2022/11/02 01:03:06;;;;;;;;;49.00;37.75;;;;;15.35;62.56;101649.28;146613;773;46016;-76
2022/11/02 01:06:17;;;;;;;;;61.25;48.50;;;;;15.38;62.07;101646.81;146634;596;45010;-72
2022/11/02 01:09:20;;;;;;;;;61.00;48.50;;;;;15.42;62.62;101648.75;146626;647;46012;-77
2022/11/02 01:12:18;;;;;;;;;60.50;46.75;;;;;15.49;62.54;101644.69;146635;566;45020;-77
2022/11/02 01:15:17;;;;;;;;;63.75;51.00;;;;;15.51;62.37;101642.12;146633;600;46014;-77
2022/11/02 01:18:18;;;;;;;;;61.50;48.75;;;;;15.51;63.01;101635.19;146631;617;46012;-76
2022/11/02 01:21:14;;;;;;;;;65.00;50.25;;;;;15.53;62.41;101630.94;146635;625;45016;-78
2022/11/02 01:24:26;;;;;;;;;63.00;50.25;;;;;13.18;61.01;101227.63;146636;580;45021;-78
2022/11/02 01:27:26;;;;;;;;;68.50;56.25;;;;;15.53;62.59;101622.22;146631;579;45016;-77
2022/11/02 01:30:18;;;;;;;;;66.75;51.75;;;;;15.50;62.73;101624.69;146628;593;45010;-78
2022/11/02 01:33:19;;;;;;;;;65.25;53.25;;;;;15.47;62.45;101617.59;146634;615;45016;-77
2022/11/02 01:36:22;;;;;;;;;60.50;48.25;;;;;15.45;62.19;101627.06;146635;590;45021;-76
2022/11/02 01:39:21;;;;;;;;;64.50;53.25;;;;;15.40;62.47;101623.37;146633;594;45016;-71
2022/11/02 01:42:30;;;;;;;;;64.50;50.00;;;;;15.32;61.75;101627.34;146636;592;45020;-72
2022/11/02 01:45:25;;;;;;;;;62.00;48.25;;;;;15.23;63.07;101627.78;146633;636;45016;-71
2022/11/02 01:48:26;;;;;;;;;62.00;50.25;;;;;15.14;63.37;101617.84;146631;574;45020;-72
2022/11/02 01:52:04;;;;;;;;;62.25;48.25;;;;;12.73;62.13;101214.09;146635;575;45012;-72
2022/11/02 01:55:30;;;;;;;;;64.50;50.50;;;;;14.95;62.89;101612.53;146636;622;45010;-71
2022/11/02 01:58:27;;;;;;;;;62.25;48.75;;;;;14.86;63.62;101612.09;146635;615;45017;-72
2022/11/02 02:01:20;;;;;;;;;60.50;47.25;;;;;14.81;63.75;101613.63;146634;567;45020;-72
2022/11/02 02:04:20;;;;;;;;;61.00;48.50;;;;;14.76;63.58;101611.66;146626;580;46012;-74
2022/11/02 02:07:25;;;;;;;;;66.75;50.25;;;;;13.55;63.45;101411.78;146621;570;46010;-74
2022/11/02 02:10:23;;;;;;;;;55.00;45.75;;;;;14.58;63.67;101610.78;146618;589;46016;-71
2022/11/02 02:13:19;;;;;;;;;53.25;44.50;;;;;14.48;64.00;101613.72;146621;570;46021;-72
2022/11/02 02:16:42;;;;;;;;;55.00;44.25;;;;;14.37;64.14;101620.13;146619;615;46012;-72
2022/11/02 02:20:27;;;;;;;;;54.25;44.25;;;;;12.76;63.96;101377.31;146622;664;46010;-71
2022/11/02 02:24:06;;;;;;;;;53.00;43.00;;;;;14.06;64.25;101619.47;146618;569;46016;-70
2022/11/02 02:27:48;;;;;;;;;52.50;42.00;;;;;11.63;64.45;101213.50;146619;608;46020;-72
2022/11/02 02:31:08;;;;;;;;;51.00;41.75;;;;;13.89;65.17;101612.47;146617;591;46016;-71
2022/11/02 02:34:21;;;;;;;;;53.75;40.50;;;;;13.90;65.16;101616.00;146619;614;46010;-81
2022/11/02 02:37:36;;;;;;;;;50.00;38.75;;;;;13.88;64.95;101607.19;146617;620;46012;-77
2022/11/02 02:40:44;;;;;;;;;51.25;40.25;;;;;13.83;65.81;101599.13;146621;573;46010;-84
2022/11/02 02:44:12;;;;;;;;;49.75;40.25;;;;;13.79;65.52;101603.28;146616;577;46916;-84
2022/11/02 02:47:26;;;;;;;;;;;;;;;;;;;;;
2022/11/02 02:50:28;;;;;;;;;43.75;33.75;;;;;13.70;65.37;101587.16;146617;590;46017;-77
2022/11/02 02:53:34;;;;;;;;;48.25;38.25;;;;;13.69;66.79;101595.81;146617;617;46020;-76
2022/11/02 02:56:31;;;;;;;;;43.75;35.25;;;;;13.69;65.81;101598.41;146613;605;46016;-78
2022/11/02 02:59:47;;;;;;;;;40.00;33.00;;;;;13.71;65.34;101588.06;146619;563;46020;-77
2022/11/02 03:03:00;;;;;;;;;43.25;35.25;;;;;13.72;65.74;101588.16;146617;609;46016;-76
2022/11/02 03:06:36;;;;;;;;;39.25;32.25;;;;;12.30;63.90;101338.41;146622;569;46021;-71
2022/11/02 03:10:13;;;;;;;;;44.50;37.25;;;;;12.43;64.16;101354.78;146616;633;46014;-70
2022/11/02 03:14:15;;;;;;;;;;;;;;;;;;;;;
2022/11/02 03:17:33;;;;;;;;;42.50;34.75;;;;;13.77;64.35;101597.09;146616;630;46016;-69
2022/11/02 03:21:11;;;;;;;;;45.50;39.00;;;;;12.30;64.53;101343.62;146620;596;46021;-70
2022/11/02 03:24:27;;;;;;;;;44.25;36.00;;;;;13.70;64.59;101592.38;146618;566;46016;-70
2022/11/02 03:27:44;;;;;;;;;42.75;35.00;;;;;13.66;65.63;101597.34;146621;594;46012;-73
2022/11/02 03:30:46;;;;;;;;;41.25;34.25;;;;;13.65;66.34;101593.84;146616;607;46016;-73
2022/11/02 03:33:50;;;;;;;;;45.75;37.75;;;;;13.62;66.29;101605.00;146620;570;46021;-72
2022/11/02 03:37:21;;;;;;;;;40.00;34.00;;;;;12.17;64.86;101340.34;146616;588;46012;-73
2022/11/02 03:40:41;;;;;;;;;50.00;39.50;;;;;13.63;65.08;101595.47;146619;580;46020;-71
2022/11/02 03:43:41;;;;;;;;;49.25;39.75;;;;;13.62;66.00;101591.09;146617;603;46012;-71
2022/11/02 03:46:51;;;;;;;;;53.25;43.75;;;;;13.62;66.59;101601.50;146623;629;46010;-70
2022/11/02 03:49:55;;;;;;;;;53.25;42.50;;;;;13.59;66.69;101596.13;146610;624;46031;-69
2022/11/02 03:52:58;;;;;;;;;52.25;42.75;;;;;13.56;66.06;101601.19;146618;663;46020;-71
2022/11/02 03:55:58;;;;;;;;;52.00;43.00;;;;;13.54;67.25;101595.87;146617;613;46916;-73
2022/11/02 03:59:03;;;;;;;;;52.00;43.00;;;;;13.50;67.59;101591.34;146616;569;46020;-73
2022/11/02 04:02:04;;;;;;;;;55.00;44.00;;;;;13.49;68.28;101594.75;146616;632;46916;-73
2022/11/02 04:05:00;;;;;;;;;54.00;44.25;;;;;13.45;68.01;101587.56;146621;690;46021;-72
2022/11/02 04:14:50;;;;;;;;;56.25;45.25;;;;;13.38;67.56;101585.47;146618;680;46012;-73
2022/11/02 04:21:03;;;;;;;;;59.50;46.25;;;;;11.97;67.61;101341.87;146617;627;46016;-72
2022/11/02 04:27:11;;;;;;;;;57.25;46.75;;;;;13.41;67.49;101593.44;146616;564;46915;-70
2022/11/02 04:30:16;;;;;;;;;;;;;;;;;;;;;
2022/11/02 04:36:21;;;;;;;;;67.00;52.00;;;;;13.51;68.44;101589.63;146619;609;46022;-71
2022/11/02 04:39:24;;;;;;;;;68.75;52.00;;;;;13.55;68.24;101596.78;146618;630;46033;-70
2022/11/02 04:42:22;;;;;;;;;66.00;50.25;;;;;13.55;67.86;101592.47;146619;569;46010;-69
2022/11/02 04:45:20;;;;;;;;;68.75;55.00;;;;;13.48;69.56;101586.84;146617;566;46016;-70
2022/11/02 04:48:15;;;;;;;;;70.00;56.25;;;;;13.51;68.17;101598.31;146620;564;46011;-72
2022/11/02 04:51:16;;;;;;;;;67.50;53.00;;;;;12.37;67.55;101393.47;146617;591;46016;-74
2022/11/02 04:54:09;;;;;;;;;66.75;52.25;;;;;13.62;67.23;101604.13;146622;564;46020;-71
2022/11/02 04:57:13;;;;;;;;;71.00;60.00;;;;;13.63;67.80;101608.50;146617;637;46016;-71
2022/11/02 05:00:23;;;;;;;;;;;;;;;;;;;;;
2022/11/02 05:03:35;;;;;;;;;70.50;56.75;;;;;12.43;67.10;101411.12;146618;683;46016;-71
2022/11/02 05:06:31;;;;;;;;;67.50;54.75;;;;;13.59;68.27;101617.00;146614;576;46010;-71
2022/11/02 05:09:31;;;;;;;;;70.75;52.75;;;;;13.56;68.14;101617.72;146611;593;46016;-75
2022/11/02 05:12:35;;;;;;;;;66.50;52.25;;;;;13.56;67.83;101619.44;146611;591;46020;-75
2022/11/02 05:15:28;;;;;;;;;67.25;52.75;;;;;13.53;68.66;101616.66;146612;609;46016;-75
2022/11/02 05:18:24;;;;;;;;;64.25;51.75;;;;;13.54;68.51;101616.72;146613;587;46021;-80
2022/11/02 05:21:22;;;;;;;;;61.50;50.25;;;;;13.56;68.46;101619.44;146612;622;46016;-80
2022/11/02 05:24:14;;;;;;;;;63.75;49.00;;;;;13.56;68.67;101624.66;146613;611;46011;-80
2022/11/02 05:27:17;;;;;;;;;62.50;50.50;;;;;13.58;67.62;101630.81;146607;591;46014;-80
2022/11/02 05:30:16;;;;;;;;;60.75;48.00;;;;;13.60;69.10;101635.28;146612;614;46020;-80
2022/11/02 05:33:19;;;;;;;;;59.50;48.25;;;;;13.66;67.46;101633.84;146612;595;46017;-79
2022/11/02 05:36:24;;;;;;;;;60.00;47.00;;;;;13.91;68.91;101642.12;146609;601;46020;-80
2022/11/02 05:39:16;;;;;;;;;62.75;49.00;;;;;14.45;68.59;101648.38;146612;640;46017;-80
2022/11/02 05:42:17;;;;;;;;;63.50;47.75;;;;;14.88;66.19;101636.59;146610;579;46021;-78
2022/11/02 05:45:16;;;;;;;;;64.75;50.25;;;;;15.31;65.84;101654.31;146610;588;46016;-79
2022/11/02 05:48:21;;;;;;;;;64.75;50.00;;;;;15.83;64.11;101649.78;146613;569;46021;-80
2022/11/02 05:51:24;;;;;;;;;62.75;47.75;;;;;16.55;63.98;101647.63;146612;607;46014;-82
2022/11/02 05:54:23;;;;;;;;;61.00;47.50;;;;;17.44;61.15;101640.69;146614;615;46021;-76
2022/11/02 05:57:25;;;;;;;;;62.00;48.75;;;;;18.28;58.80;101649.88;146612;608;46012;-83
2022/11/02 06:00:29;;;;;;;;;61.50;47.75;;;;;18.85;57.62;101648.34;146614;657;46010;-83
2022/11/02 06:03:27;;;;;;;;;59.75;47.00;;;;;19.44;55.55;101647.50;146613;592;46034;-82
2022/11/02 06:06:31;;;;;;;;;62.75;49.50;;;;;20.05;54.08;101662.44;146612;563;46010;-81
2022/11/02 06:09:36;;;;;;;;;59.75;47.75;;;;;20.55;53.87;101665.56;146613;608;46012;-83
2022/11/02 06:12:28;;;;;;;;;61.50;48.25;;;;;21.10;52.03;101661.63;146612;614;46020;-81
2022/11/02 06:15:31;;;;;;;;;59.50;48.00;;;;;21.51;51.05;101656.41;146611;578;46016;-81
2022/11/02 06:18:35;;;;;;;;;60.25;46.75;;;;;21.79;50.11;101663.13;146613;653;46020;-70
2022/11/02 06:21:30;;;;;;;;;65.00;51.25;;;;;21.93;48.83;101666.03;146608;563;46916;-74
2022/11/02 06:24:22;;;;;;;;;64.75;51.50;;;;;21.83;48.71;101672.00;146611;576;46021;-71
2022/11/02 06:27:16;;;;;;;;;66.50;51.50;;;;;21.77;50.47;101666.59;146610;661;46016;-73
2022/11/02 06:30:16;;;;;;;;;65.75;52.25;;;;;21.91;50.66;101675.69;146611;582;46020;-73
2022/11/02 06:33:15;;;;;;;;;69.00;57.50;;;;;22.11;48.84;101678.72;146611;662;46014;-77
2022/11/02 06:36:10;;;;;;;;;68.00;57.50;;;;;22.24;48.40;101675.50;146612;574;46020;-77
2022/11/02 06:39:05;;;;;;;;;72.00;61.25;;;;;22.12;47.58;101673.47;146612;649;46017;-74
2022/11/02 06:42:10;;;;;;;;;71.00;58.75;;;;;20.65;48.52;101490.13;146611;569;46020;-75
2022/11/02 06:45:18;;;;;;;;;71.00;60.75;;;;;20.19;49.54;101463.59;146611;582;46015;-73
2022/11/02 06:48:18;;;;;;;;;72.25;63.00;;;;;21.14;49.38;101684.56;146615;586;46020;-74
2022/11/02 06:51:42;;;;;;;;;;;;;;;;;;;;;
2022/11/02 06:54:35;;;;;;;;;76.50;69.00;;;;;20.71;49.78;101674.72;146613;572;46011;-73
2022/11/02 06:57:49;;;;;;;;;75.33;70.33;;;;;20.59;51.34;101682.31;146609;613;46012;-73
2022/11/02 07:00:46;;;;;;;;;71.50;63.00;;;;;20.49;51.70;101679.41;146613;586;46010;-79
2022/11/02 07:03:45;;;;;;;;;73.50;62.25;;;;;20.47;51.91;101681.16;146606;640;46012;-73
2022/11/02 07:06:37;;;;;;;;;75.25;68.25;;;;;20.50;51.96;101680.34;146613;621;46012;-74
2022/11/02 07:09:30;;;;;;;;;76.00;67.33;;;;;20.49;50.86;101683.81;146612;685;46038;-74
2022/11/02 07:12:28;;;;;;;;;70.00;59.50;;;;;20.47;51.83;101675.88;146612;596;46020;-75
2022/11/02 07:15:32;;;;;;;;;73.75;65.00;;;;;20.51;51.83;101672.50;146610;583;46916;-73
2022/11/02 07:18:33;;;;;;;;;72.25;62.75;;;;;20.57;51.31;101671.75;146612;607;46020;-73
2022/11/02 07:21:37;;;;;;;;;69.75;61.00;;;;;20.71;51.94;101674.72;146612;626;46016;-74
2022/11/02 07:24:49;;;;;;;;;72.00;62.00;;;;;20.88;50.81;101667.25;146612;650;46020;-74
2022/11/02 07:27:47;;;;;;;;;71.50;63.00;;;;;20.99;50.80;101664.00;146608;571;46035;-74
2022/11/02 07:30:51;;;;;;;;;70.00;59.25;;;;;21.07;51.41;101653.63;146611;625;47010;-74
2022/11/02 07:33:59;;;;;;;;;69.00;59.25;;;;;21.26;51.10;101664.63;146608;638;46016;-74
2022/11/02 07:36:55;;;;;;;;;64.25;50.50;;;;;21.42;50.93;101661.47;146612;604;46021;-75
2022/11/02 07:40:03;;;;;;;;;;;;;;;;;;;;;
2022/11/02 07:43:06;;;;;;;;;70.67;63.00;;;;;21.80;50.22;101666.66;146613;568;46012;-74
2022/11/02 07:46:05;;;;;;;;;70.67;60.67;;;;;21.96;49.71;101659.94;146611;686;46016;-76
2022/11/02 07:49:19;;;;;;;;;75.75;65.00;;;;;20.05;49.63;101312.31;146613;595;46020;-75
2022/11/02 07:52:20;;;;;;;;;74.75;66.25;;;;;22.17;49.58;101655.09;146611;661;46012;-75
2022/11/02 07:55:20;;;;;;;;;81.33;71.67;;;;;22.24;49.19;101642.88;146616;579;46020;-75
2022/11/02 07:58:24;;;;;;;;;77.67;67.00;;;;;22.29;49.45;101647.41;146611;645;46016;-75
2022/11/02 08:01:17;;;;;;;;;79.33;70.00;;;;;22.37;49.04;101650.19;146613;588;46010;-75
2022/11/02 08:04:11;;;;;;;;;80.00;75.00;;;;;22.40;48.59;101646.69;146611;578;46012;-75
2022/11/02 08:07:14;;;;;;;;;81.33;75.00;;;;;22.44;48.49;101646.78;146643;592;45010;-75
2022/11/02 08:10:11;;;;;;;;;78.00;72.00;;;;;22.49;50.01;101646.84;146638;665;45016;-75
2022/11/02 08:13:10;;;;;;;;;77.67;69.00;;;;;22.63;49.75;101640.03;146640;583;45020;-76
2022/11/02 08:16:10;;;;;;;;;87.33;78.67;;;;;22.83;49.03;101637.72;146634;593;45016;-75
2022/11/02 08:19:10;;;;;;;;;78.33;68.33;;;;;23.04;48.68;101629.25;146640;669;45020;-76
2022/11/02 08:22:08;;;;;;;;;81.67;74.67;;;;;23.25;47.19;101632.19;146634;564;46013;-76
2022/11/02 08:25:03;;;;;;;;;79.67;72.33;;;;;23.38;47.28;101627.06;146640;637;46010;-75
2022/11/02 08:28:18;;;;;;;;;75.67;70.00;;;;;22.46;48.72;101457.44;146633;593;45016;-77
2022/11/02 08:31:27;;;;;;;;;78.67;73.00;;;;;23.56;47.47;101627.31;146636;606;45021;-77
2022/11/02 08:34:24;;;;;;;;;75.25;68.50;;;;;23.66;47.66;101633.59;146635;573;45016;-77
2022/11/02 08:37:17;;;;;;;;;74.67;66.67;;;;;23.74;46.35;101629.31;146638;624;45012;-76
2022/11/02 08:40:16;;;;;;;;;69.50;56.00;;;;;23.79;47.16;101635.53;146635;597;45016;-78
2022/11/02 08:43:12;;;;;;;;;65.25;51.50;;;;;23.83;44.94;101621.47;146638;578;44020;-78
2022/11/02 08:46:19;;;;;;;;;64.50;50.00;;;;;23.83;45.95;101618.84;146630;625;46919;-77
2022/11/02 08:49:20;;;;;;;;;63.50;48.75;;;;;23.86;44.59;101617.94;146639;633;44020;-78
2022/11/02 08:52:14;;;;;;;;;58.50;46.50;;;;;23.87;43.74;101612.69;146632;600;45918;-75
2022/11/02 08:55:07;;;;;;;;;55.25;45.50;;;;;23.91;45.92;101606.53;146635;626;45010;-76
2022/11/02 08:58:01;;;;;;;;;55.00;43.25;;;;;24.00;45.17;101602.22;146631;594;46918;-77
2022/11/02 09:00:56;;;;;;;;;52.25;42.00;;;;;24.11;44.16;101605.84;146634;565;45010;-78
2022/11/02 09:03:49;;;;;;;;;47.25;37.25;;;;;24.18;44.13;101602.41;146636;593;45012;-77
2022/11/02 09:06:41;;;;;;;;;44.25;36.25;;;;;24.29;44.17;101589.22;146616;574;46011;-76
2022/11/02 09:09:56;;;;;;;;;50.75;41.25;;;;;24.44;44.78;101597.34;146611;589;46016;-78
2022/11/02 09:12:52;;;;;;;;;50.00;39.00;;;;;24.51;43.92;101585.03;146609;606;46010;-77
2022/11/02 09:15:46;;;;;;;;;48.50;38.50;;;;;24.59;44.56;101583.31;146611;597;46037;-76
2022/11/02 09:18:44;;;;;;;;;49.00;39.75;;;;;24.69;42.67;101578.97;146614;565;46032;-75
2022/11/02 09:21:50;;;;;;;;;46.75;37.00;;;;;24.76;41.85;101571.06;146611;628;46017;-78
2022/11/02 09:24:49;;;;;;;;;50.75;40.50;;;;;24.83;44.04;101570.22;146615;563;46010;-77
2022/11/02 09:27:55;;;;;;;;;50.75;41.25;;;;;24.91;44.67;101564.06;146612;617;46016;-77
2022/11/02 09:30:56;;;;;;;;;51.00;40.50;;;;;24.95;44.05;101566.72;146616;593;46020;-76
2022/11/02 09:33:57;;;;;;;;;49.75;40.50;;;;;25.01;43.26;101561.47;146610;582;46016;-77
2022/11/02 09:36:50;;;;;;;;;44.25;38.00;;;;;25.06;42.18;101549.13;146614;762;46010;-77
2022/11/02 09:40:03;;;;;;;;;49.50;39.75;;;;;23.99;44.44;101352.31;146611;575;46016;-78
2022/11/02 09:43:52;;;;;;;;;47.50;38.00;;;;;25.16;44.44;101547.41;146612;810;46020;-78
2022/11/02 09:46:54;;;;;;;;;45.50;36.50;;;;;25.21;43.31;101540.38;146611;582;46012;-78
2022/11/02 09:49:50;;;;;;;;;50.25;40.50;;;;;25.27;43.81;101536.88;146615;570;46020;-76
2022/11/02 09:52:46;;;;;;;;;53.00;40.75;;;;;25.40;41.63;101532.47;146609;590;48012;-79
2022/11/02 09:55:50;;;;;;;;;48.75;38.75;;;;;25.45;42.46;101515.69;146617;780;45020;-78
2022/11/02 09:58:53;;;;;;;;;51.75;42.00;;;;;25.55;40.35;101527.22;146612;565;46012;-77
2022/11/02 10:01:59;;;;;;;;;46.75;39.75;;;;;25.59;43.26;101510.38;146615;577;46020;-76
2022/11/02 10:05:37;;;;;;;;;44.75;37.00;;;;;25.76;44.41;101521.94;146614;592;46013;-77
2022/11/02 10:09:23;;;;;;;;;35.25;32.25;;;;;24.02;44.09;101203.09;146615;570;46020;-78
2022/11/02 10:12:25;;;;;;;;;45.00;35.50;;;;;25.84;41.87;101511.34;146611;594;46016;-76
2022/11/02 10:15:32;;;;;;;;;52.00;39.50;;;;;25.81;42.24;101506.03;146611;636;46020;-82
2022/11/02 10:18:34;;;;;;;;;51.00;40.25;;;;;25.77;39.90;101497.13;146612;604;46016;-76
2022/11/02 10:21:57;;;;;;;;;46.75;39.75;;;;;24.70;41.35;101291.66;146614;647;46020;-76
2022/11/02 10:24:50;;;;;;;;;50.25;41.25;;;;;25.97;41.06;101491.84;146612;667;46016;-76
2022/11/02 10:27:55;;;;;;;;;48.25;40.50;;;;;25.98;39.70;101488.34;146613;587;46020;-75
2022/11/02 10:31:01;;;;;;;;;;;;;;;;;;;;;
2022/11/02 10:34:05;;;;;;;;;45.50;37.75;;;;;26.10;42.71;101481.22;146611;659;47012;-76
2022/11/02 10:37:34;;;;;;;;;50.00;40.50;;;;;26.18;41.87;101463.50;146611;627;46017;-78
2022/11/02 10:41:02;;;;;;;;;44.75;36.50;;;;;26.31;42.03;101464.37;146616;593;46010;-78
2022/11/02 10:44:47;;;;;;;;;52.00;40.75;;;;;25.22;45.40;101274.06;146611;639;46017;-77
2022/11/02 10:48:15;;;;;;;;;44.25;37.00;;;;;26.25;44.26;101455.50;146614;622;46022;-74
2022/11/02 10:51:20;;;;;;;;;45.75;37.00;;;;;26.18;43.88;101448.44;146611;735;46017;-74
2022/11/02 10:54:35;;;;;;;;;;;;;;;;;;;;;
2022/11/02 10:57:44;;;;;;;;;39.50;34.50;;;;;26.25;42.21;101442.22;146611;645;46033;-77
2022/11/02 11:00:51;;;;;;;;;43.00;35.75;;;;;26.33;43.82;101439.56;146615;642;46020;-77
2022/11/02 11:04:20;;;;;;;;;48.00;39.00;;;;;26.45;43.98;101443.97;146611;570;46916;-75
2022/11/02 11:07:46;;;;;;;;;44.50;37.00;;;;;26.48;43.12;101446.59;146627;614;46010;-78
2022/11/02 11:10:45;;;;;;;;;43.50;36.50;;;;;26.48;40.57;101443.94;146634;608;45016;-75
2022/11/02 11:14:04;;;;;;;;;;;;;;;;;;;;;
2022/11/02 11:17:40;;;;;;;;;46.75;38.25;;;;;26.60;44.03;101425.28;146624;604;46016;-73
2022/11/02 11:20:45;;;;;;;;;42.00;35.00;;;;;26.62;44.32;101426.19;146634;593;45012;-76
2022/11/02 11:23:43;;;;;;;;;45.25;37.50;;;;;26.70;42.30;101421.72;146634;580;45012;-75
2022/11/02 11:26:42;;;;;;;;;48.00;39.25;;;;;26.79;42.79;101430.53;146635;601;46011;-76
2022/11/02 11:29:50;;;;;;;;;43.75;36.25;;;;;26.92;41.94;101427.84;146633;580;45014;-75
2022/11/02 11:32:52;;;;;;;;;43.50;36.00;;;;;27.13;41.09;101420.59;146634;636;46012;-76
2022/11/02 11:36:02;;;;;;;;;44.00;37.75;;;;;27.25;41.50;101417.91;146631;882;45913;-75
2022/11/02 11:39:01;;;;;;;;;47.25;37.50;;;;;27.24;41.24;101412.59;146637;569;45010;-76
2022/11/02 11:41:53;;;;;;;;;51.00;41.50;;;;;27.27;41.07;101409.91;146631;605;45916;-75
2022/11/02 11:45:24;;;;;;;;;50.25;41.50;;;;;26.23;42.23;101220.72;146628;575;45029;-75
2022/11/02 11:48:58;;;;;;;;;46.75;38.50;;;;;26.31;42.06;101204.69;146633;565;46012;-79
2022/11/02 11:52:23;;;;;;;;;53.75;43.75;;;;;26.41;41.71;101200.19;146636;654;45010;-76
2022/11/02 11:56:05;;;;;;;;;52.25;41.75;;;;;27.58;43.04;101384.81;146632;630;45914;-76
2022/11/02 11:59:02;;;;;;;;;55.00;43.75;;;;;27.63;42.03;101372.34;146635;617;45029;-76
2022/11/02 12:02:43;;;;;;;;;56.00;43.75;;;;;27.69;42.98;101373.16;146631;613;45034;-74
2022/11/02 12:06:03;;;;;;;;;57.75;45.75;;;;;27.77;41.38;101374.00;146618;566;46021;-75
2022/11/02 12:09:23;;;;;;;;;56.00;43.25;;;;;27.84;41.42;101360.59;146612;615;46029;-76
2022/11/02 12:13:10;;;;;;;;;56.50;45.00;;;;;27.05;42.19;101212.16;146615;596;46021;-76
2022/11/02 12:16:50;;;;;;;;;59.00;46.50;;;;;26.69;41.60;101151.25;146612;585;46014;-76
2022/11/02 12:20:36;;;;;;;;;58.25;44.75;;;;;26.84;41.52;101168.00;146614;564;46021;-77
2022/11/02 12:24:16;;;;;;;;;59.00;47.50;;;;;26.05;41.66;101028.59;146612;594;46014;-78
2022/11/02 12:27:50;;;;;;;;;62.75;49.50;;;;;26.05;42.96;101028.59;146614;605;46021;-72
2022/11/02 12:31:13;;;;;;;;;63.00;51.25;;;;;27.95;41.44;101340.97;146610;617;46012;-76
2022/11/02 12:34:57;;;;;;;;;64.75;50.00;;;;;26.15;42.59;101020.53;146614;578;46021;-76
2022/11/02 12:38:32;;;;;;;;;62.25;49.00;;;;;28.02;41.93;101334.69;146605;604;47914;-75
2022/11/02 12:42:09;;;;;;;;;61.75;48.75;;;;;27.02;42.28;101154.53;146609;600;46012;-74
2022/11/02 12:45:48;;;;;;;;;63.75;49.75;;;;;28.11;41.47;101334.56;146610;628;46016;-76
2022/11/02 12:49:42;;;;;;;;;;;;;;;;;;;;;
2022/11/02 12:53:12;;;;;;;;;61.25;49.25;;;;;28.17;42.05;101329.16;146606;604;47913;-76
2022/11/02 12:56:27;;;;;;;;;60.50;48.00;;;;;28.19;41.33;101318.47;146615;571;46021;-74
2022/11/02 12:59:40;;;;;;;;;62.00;50.25;;;;;28.31;42.19;101324.53;146609;569;47016;-76
2022/11/02 13:03:26;;;;;;;;;64.00;50.75;;;;;26.58;42.47;101011.31;146611;631;46021;-76
2022/11/02 13:06:46;;;;;;;;;57.75;46.25;;;;;28.33;43.72;101319.19;146615;597;46016;-76
2022/11/02 13:09:59;;;;;;;;;58.00;45.75;;;;;28.24;44.28;101321.97;146621;572;46020;-75
2022/11/02 13:13:16;;;;;;;;;57.25;46.00;;;;;28.20;44.10;101314.91;146614;587;46016;-74
2022/11/02 13:16:16;;;;;;;;;57.25;46.25;;;;;28.25;43.10;101313.94;146622;566;46010;-75
2022/11/02 13:19:35;;;;;;;;;61.00;46.50;;;;;26.51;43.59;101010.47;146617;590;46013;-75
2022/11/02 13:22:36;;;;;;;;;53.75;44.00;;;;;28.36;44.20;101304.94;146622;595;46008;-75
2022/11/02 13:25:42;;;;;;;;;57.75;45.75;;;;;28.37;43.87;101312.91;146615;577;47015;-76
2022/11/02 13:28:48;;;;;;;;;57.50;46.75;;;;;28.27;44.25;101300.59;146622;591;48010;-75
2022/11/02 13:31:47;;;;;;;;;58.25;45.50;;;;;28.23;43.57;101307.75;146615;716;46916;-75
2022/11/02 13:34:51;;;;;;;;;60.50;47.50;;;;;28.18;44.04;101300.72;146617;570;46020;-76
2022/11/02 13:37:57;;;;;;;;;55.75;46.00;;;;;28.13;43.75;101302.53;146618;652;46016;-75
2022/11/02 13:41:33;;;;;;;;;56.50;45.25;;;;;28.05;45.48;101299.97;146619;572;46021;-75
2022/11/02 13:45:04;;;;;;;;;58.00;46.00;;;;;28.00;44.92;101296.47;146618;643;46018;-75
2022/11/02 13:48:48;;;;;;;;;55.00;44.25;;;;;26.76;45.52;101113.97;146618;583;46021;-76
2022/11/02 13:52:01;;;;;;;;;58.25;46.75;;;;;26.62;45.10;101144.25;146620;634;46012;-74
2022/11/02 13:55:13;;;;;;;;;57.00;45.00;;;;;27.26;46.39;101299.88;146618;606;46020;-75
2022/11/02 13:58:24;;;;;;;;;56.50;46.25;;;;;27.01;46.73;101292.91;146616;644;46017;-75
2022/11/02 14:01:25;;;;;;;;;59.25;46.50;;;;;26.77;47.43;101297.53;146622;604;46010;-75
2022/11/02 14:04:23;;;;;;;;;51.75;42.75;;;;;26.56;47.77;101303.88;146616;589;46016;-76
2022/11/02 14:07:38;;;;;;;;;56.25;44.25;;;;;26.34;47.82;101296.84;146632;569;46012;-75
2022/11/02 14:10:44;;;;;;;;;51.25;41.50;;;;;26.14;48.34;101303.16;146631;578;45016;-76
2022/11/02 14:14:20;;;;;;;;;54.75;45.25;;;;;25.99;48.31;101304.06;146636;599;45020;-75
2022/11/02 14:17:22;;;;;;;;;49.00;41.75;;;;;25.89;48.63;101298.78;146635;629;45016;-76
2022/11/02 14:20:40;;;;;;;;;52.00;42.75;;;;;25.79;48.97;101300.53;146633;613;45010;-75
2022/11/02 14:24:06;;;;;;;;;52.75;41.50;;;;;23.52;49.26;100927.59;146632;628;45016;-76
2022/11/02 14:27:05;;;;;;;;;51.25;41.00;;;;;25.49;49.73;101294.41;146636;629;45010;-75
2022/11/02 14:30:47;;;;;;;;;51.50;41.75;;;;;25.38;49.69;101293.53;146632;578;46014;-75
2022/11/02 14:34:32;;;;;;;;;50.50;41.50;;;;;23.14;49.66;100923.97;146635;600;45020;-76
2022/11/02 14:37:57;;;;;;;;;54.50;41.75;;;;;23.07;49.88;100922.19;146630;564;46014;-75
2022/11/02 14:41:21;;;;;;;;;54.00;44.25;;;;;25.08;50.58;101291.75;146630;586;45021;-75
2022/11/02 14:44:44;;;;;;;;;55.25;44.50;;;;;24.90;50.59;101297.91;146635;658;45016;-74
2022/11/02 14:47:43;;;;;;;;;49.50;40.25;;;;;24.76;51.34;101297.00;146633;629;45012;-75
2022/11/02 14:51:00;;;;;;;;;52.00;40.25;;;;;24.62;51.46;101292.56;146634;604;45016;-76
2022/11/02 14:54:02;;;;;;;;;51.25;41.50;;;;;24.52;51.65;101303.12;146636;590;45010;-76